Scamander, Tasmania

10:43 AM AEDT on March 02, 2015 (GMT +1100)
Launceston | Change Station
CLOSE
Current Station
Airport
Location: Launceston Airport,
Elevation: 561 ft
Nearby Weather Stations

Elev 561 ft 41.55 °S, 147.21 °E | Updated 13 minutes ago

Scattered Clouds
Scattered Clouds
61 °F
Feels Like 61 °F
N
5
Wind Variable Wind from West

Today
High -- | Low -- °F
--% Chance of Precip.
Yesterday
High -- | Low -- °F
Precip. -- in
6:48 AM 7:49 PM
Waxing Gibbous, 88% visible
Pressure 30.06 in
Visibility 6.2 miles
Clouds Scattered Clouds 4100 ft
Dew Point 45 °F
Humidity 55%
Rainfall 0.00 in
Snow Depth Not available.
UV 5 out of 12
Pollen Not available.
Air Quality Not available.
Flu Activity Not available.
METAR YMLT 012330Z AUTO 26004KT 9999 // SCT041 16/07 Q1018

More Conditions Fewer Conditions

Pressure 30.06 in
Visibility 6.2 miles
Clouds Scattered Clouds 4100 ft
Dew Point 45 °F
Humidity 55%
Rainfall 0.00 in
Snow Depth Not available.
UV 5 out of 12
Pollen Not available.
Air Quality Not available.
Flu Activity Not available.
METAR YMLT 012330Z AUTO 26004KT 9999 // SCT041 16/07 Q1018

More Conditions Fewer Conditions

10-Day Weather Forecast

Almanac

Astronomy

Mar. 02, 2015 Rise Set
Actual Time
Civil Twilight
Nautical Twilight
Astronomical Twilight
Moon
Length of Visible Light
Length of Day
Tomorrow will be .
, % of the Moon is Illuminated

Today's Extremes

Country Highs Country Lows

Community

WunderPhotos

Upload Photos

1,801,614 photos uploaded!

WunderBlogs® & News

Nearby

Air Quality

  Air Quality AQ Index Pollutant
Not available.

Snow Depth

Station Depth Elevation

Earthquake Activity

City Distance Mag. Time & Date
Minimum magnitude displayed is 2.5.

Coastal Water Temperatures

Place Temperature

Nearby Weather Stations